Time;durP1;ratioP1;P1;durP2;ratioP2;P2;SDS_P1;SDS_P2;PMS_P1;PMS_P2;Temp;Humidity;BMP_temperature;BMP_pressure;BME280_temperature;BME280_humidity;BME280_pressure;Samples;Min_cycle;Max_cycle;Signal;HPM_P1;HPM_P2
2022/04/03 00:00:36;;;;;;;7.40;3.67;;;-1.10;94.30;;;;;;4928423;29;20550;-78
2022/04/03 00:03:04;;;;;;;8.27;3.60;;;-1.10;95.00;;;;;;4926558;29;20020;-77
2022/04/03 00:05:41;;;;;;;5.23;2.87;;;-1.20;95.20;;;;;;4925013;29;21363;-77
2022/04/03 00:08:08;;;;;;;5.87;3.73;;;-1.20;94.60;;;;;;4920815;29;20055;-77
2022/04/03 00:10:35;;;;;;;7.63;3.17;;;-1.30;94.70;;;;;;4926539;29;20020;-77
2022/04/03 00:13:04;;;;;;;8.63;2.90;;;-1.40;94.90;;;;;;4924875;29;20031;-78
2022/04/03 00:15:30;;;;;;;8.47;3.60;;;-1.50;95.10;;;;;;4923838;29;20036;-77
2022/04/03 00:17:56;;;;;;;4.93;2.90;;;-1.50;96.00;;;;;;4928111;29;20385;-77
2022/04/03 00:20:22;;;;;;;6.00;3.13;;;-1.60;95.50;;;;;;4925195;29;20023;-77
2022/04/03 00:22:48;;;;;;;8.03;3.60;;;-1.60;96.00;;;;;;4924185;29;20171;-77
2022/04/03 00:25:15;;;;;;;8.20;3.33;;;-1.70;96.00;;;;;;4928508;29;20106;-77
2022/04/03 00:27:41;;;;;;;6.80;5.17;;;-1.60;97.10;;;;;;4925489;29;20031;-77
2022/04/03 00:30:07;;;;;;;8.20;5.20;;;-1.60;97.30;;;;;;4924039;29;20020;-77
2022/04/03 00:32:34;;;;;;;12.40;4.90;;;-1.60;96.90;;;;;;4928347;29;20031;-76
2022/04/03 00:35:00;;;;;;;9.23;5.30;;;-1.70;96.60;;;;;;4924413;29;20032;-77
2022/04/03 00:37:25;;;;;;;9.00;4.23;;;-1.80;96.70;;;;;;4925982;29;20031;-77
2022/04/03 00:39:51;;;;;;;6.90;4.07;;;-1.80;96.70;;;;;;4910030;29;20024;-77
2022/04/03 00:42:18;;;;;;;11.93;4.57;;;-1.90;97.00;;;;;;4927262;29;20031;-77
2022/04/03 00:44:44;;;;;;;10.90;3.77;;;-1.90;97.10;;;;;;4926646;29;20083;-77
2022/04/03 00:47:12;;;;;;;5.97;3.93;;;-2.00;97.30;;;;;;4906302;29;20418;-77
2022/04/03 00:49:38;;;;;;;8.93;4.70;;;-2.00;97.40;;;;;;4941168;23;20131;-78
2022/04/03 00:52:04;;;;;;;11.33;4.93;;;-1.80;98.70;;;;;;4923325;29;20477;-79
2022/04/03 00:54:30;;;;;;;5.27;3.60;;;-1.80;98.30;;;;;;4926901;29;20043;-78
2022/04/03 00:56:56;;;;;;;5.90;4.23;;;-1.80;98.10;;;;;;4905759;29;20028;-78
2022/04/03 00:59:22;;;;;;;5.20;3.40;;;-1.80;97.80;;;;;;4900572;29;20036;-78
2022/04/03 01:01:48;;;;;;;6.60;4.13;;;-1.90;97.70;;;;;;4907998;29;20024;-79
2022/04/03 01:04:14;;;;;;;5.93;4.10;;;-1.80;98.70;;;;;;4902944;29;20037;-79
2022/04/03 01:06:40;;;;;;;6.87;4.40;;;-1.80;99.10;;;;;;4907325;29;20623;-78
2022/04/03 01:09:06;;;;;;;5.73;4.23;;;-1.80;98.90;;;;;;4903532;29;20025;-78
2022/04/03 01:11:32;;;;;;;7.30;3.83;;;-1.80;98.90;;;;;;4907703;29;20123;-79
2022/04/03 01:13:58;;;;;;;6.70;4.00;;;-1.70;99.10;;;;;;4905323;29;20115;-78
2022/04/03 01:16:24;;;;;;;9.53;4.33;;;-1.80;99.00;;;;;;4902516;29;20557;-78
2022/04/03 01:18:50;;;;;;;12.83;4.83;;;-1.80;98.90;;;;;;4903224;29;20025;-78
2022/04/03 01:21:17;;;;;;;4.90;4.20;;;-1.90;99.10;;;;;;4904700;29;20053;-78
2022/04/03 01:23:43;;;;;;;6.27;3.93;;;-2.00;98.80;;;;;;4890555;29;20382;-78
2022/04/03 01:26:09;;;;;;;8.27;4.40;;;-2.00;98.80;;;;;;4903009;29;20029;-78
2022/04/03 01:28:35;;;;;;;9.00;4.30;;;-1.80;99.60;;;;;;4888379;29;20051;-78
2022/04/03 01:31:01;;;;;;;11.33;4.67;;;-1.70;99.40;;;;;;4906898;29;20465;-78
2022/04/03 01:33:26;;;;;;;9.33;5.10;;;-1.60;99.40;;;;;;4903005;29;20061;-78
2022/04/03 01:35:52;;;;;;;10.70;5.40;;;-1.70;98.90;;;;;;4890165;29;20040;-78
2022/04/03 01:38:18;;;;;;;8.03;5.27;;;-1.80;99.00;;;;;;4907210;29;20024;-78
2022/04/03 01:40:44;;;;;;;12.57;5.73;;;-1.80;99.40;;;;;;4890132;29;20028;-78
2022/04/03 01:43:11;;;;;;;9.50;5.23;;;-1.50;99.80;;;;;;4904119;29;20052;-78
2022/04/03 01:45:38;;;;;;;10.40;5.07;;;-1.50;99.20;;;;;;4903494;29;20020;-78
2022/04/03 01:48:06;;;;;;;8.67;4.80;;;-1.50;98.80;;;;;;4907280;29;20545;-78
2022/04/03 01:50:32;;;;;;;10.80;4.90;;;-1.40;99.30;;;;;;4908774;23;20044;-77
2022/04/03 01:52:57;;;;;;;9.70;5.17;;;-1.30;98.40;;;;;;4896838;29;20111;-77
2022/04/03 01:55:24;;;;;;;10.47;5.40;;;-1.30;98.40;;;;;;4896761;29;20573;-78
2022/04/03 01:57:50;;;;;;;12.57;5.30;;;-1.20;98.50;;;;;;4880258;29;20025;-77
2022/04/03 02:00:16;;;;;;;6.40;4.30;;;-1.20;98.40;;;;;;4905035;29;20389;-78
2022/04/03 02:02:42;;;;;;;13.10;4.93;;;-1.20;97.80;;;;;;4914440;29;20060;-78
2022/04/03 02:05:09;;;;;;;6.80;5.10;;;-1.10;97.50;;;;;;4913790;29;20066;-78
2022/04/03 02:07:35;;;;;;;7.73;5.43;;;-1.10;97.40;;;;;;4913848;29;20076;-78
2022/04/03 02:10:02;;;;;;;7.20;4.70;;;-1.10;97.60;;;;;;4914566;29;20028;-78
2022/04/03 02:12:28;;;;;;;9.37;4.63;;;-1.10;97.30;;;;;;4908148;29;20031;-78
2022/04/03 02:14:54;;;;;;;8.10;4.43;;;-1.30;97.00;;;;;;4913121;29;20044;-77
2022/04/03 02:17:20;;;;;;;7.17;4.30;;;-1.40;97.30;;;;;;4912954;29;20032;-78
2022/04/03 02:19:45;;;;;;;11.17;4.63;;;-1.30;98.10;;;;;;4913178;29;20465;-77
2022/04/03 02:22:11;;;;;;;8.17;5.03;;;-1.50;98.00;;;;;;4913179;29;20127;-77
2022/04/03 02:24:37;;;;;;;10.90;4.90;;;-1.60;97.50;;;;;;4914323;29;20178;-77
2022/04/03 02:27:03;;;;;;;5.60;4.00;;;-1.40;98.00;;;;;;4914680;29;20035;-78
2022/04/03 02:29:29;;;;;;;8.13;4.90;;;-1.40;98.30;;;;;;4914456;29;20020;-77
2022/04/03 02:31:55;;;;;;;9.40;4.60;;;-1.40;98.20;;;;;;4914212;29;20028;-78
2022/04/03 02:34:21;;;;;;;13.50;5.03;;;-1.40;98.40;;;;;;4917935;29;20044;-78
2022/04/03 02:36:46;;;;;;;8.70;4.37;;;-1.50;98.30;;;;;;4917917;29;20032;-78
2022/04/03 02:39:15;;;;;;;6.77;4.40;;;-1.40;98.30;;;;;;4917971;29;20035;-78
2022/04/03 02:41:41;;;;;;;10.63;3.93;;;-1.40;98.30;;;;;;4918287;29;20028;-78
2022/04/03 02:44:06;;;;;;;6.50;4.00;;;-1.30;97.70;;;;;;4918031;29;20051;-78
2022/04/03 02:46:33;;;;;;;7.50;4.00;;;-1.40;97.50;;;;;;4918028;29;20040;-78
2022/04/03 02:48:58;;;;;;;6.27;3.80;;;-1.40;98.00;;;;;;4939908;23;20035;-81
2022/04/03 02:51:24;;;;;;;5.83;3.47;;;-1.40;97.80;;;;;;4937956;29;20039;-79
2022/04/03 02:53:50;;;;;;;5.07;3.73;;;-1.30;97.60;;;;;;4940957;29;20040;-80
2022/04/03 02:56:15;;;;;;;5.90;4.33;;;-1.40;97.10;;;;;;4937693;29;20078;-80
2022/04/03 02:58:41;;;;;;;6.10;4.57;;;-1.50;97.00;;;;;;4937702;29;20023;-79
2022/04/03 03:01:08;;;;;;;6.03;4.23;;;-1.40;98.10;;;;;;4918431;29;20395;-79
2022/04/03 03:03:34;;;;;;;6.60;3.80;;;-1.50;97.60;;;;;;4918550;29;20040;-80
2022/04/03 03:05:59;;;;;;;5.37;3.43;;;-1.50;97.40;;;;;;4901595;29;20024;-80
2022/04/03 03:08:25;;;;;;;6.67;4.67;;;-1.80;97.10;;;;;;4918976;29;20035;-80
2022/04/03 03:10:51;;;;;;;6.03;3.77;;;-1.70;98.30;;;;;;4901897;29;20040;-80
2022/04/03 03:13:16;;;;;;;6.57;3.63;;;-1.70;97.90;;;;;;4918232;29;20020;-81
2022/04/03 03:15:42;;;;;;;8.90;3.53;;;-1.90;97.50;;;;;;4918701;29;20034;-81
2022/04/03 03:18:08;;;;;;;5.63;3.60;;;-1.90;98.20;;;;;;4918464;29;20060;-81
2022/04/03 03:20:34;;;;;;;6.77;3.97;;;-1.90;98.80;;;;;;4922652;29;20020;-81
2022/04/03 03:23:00;;;;;;;8.37;3.73;;;-2.00;98.50;;;;;;4918342;29;20170;-78
2022/04/03 03:25:29;;;;;;;7.30;3.90;;;-2.10;98.70;;;;;;4918327;29;20111;-81
2022/04/03 03:27:55;;;;;;;6.40;3.87;;;-2.10;99.20;;;;;;4924872;29;20032;-81
2022/04/03 03:30:21;;;;;;;8.77;4.70;;;-2.00;99.00;;;;;;4917936;29;21412;-81
2022/04/03 03:32:47;;;;;;;5.83;3.97;;;-2.10;99.10;;;;;;4918083;29;20020;-81
2022/04/03 03:35:13;;;;;;;7.30;3.90;;;-2.10;99.20;;;;;;4917761;29;20084;-81
2022/04/03 03:37:39;;;;;;;6.43;3.63;;;-2.10;99.40;;;;;;4918152;29;20067;-81
2022/04/03 03:40:06;;;;;;;7.27;4.10;;;-2.10;99.20;;;;;;4918106;29;20030;-81
2022/04/03 03:42:33;;;;;;;6.30;3.87;;;-2.10;99.10;;;;;;4917732;29;20107;-81
2022/04/03 03:44:59;;;;;;;15.30;4.97;;;-2.30;98.90;;;;;;4917277;29;20064;-81
2022/04/03 03:47:25;;;;;;;6.17;3.70;;;-2.30;98.60;;;;;;4918128;29;20032;-81
2022/04/03 03:49:51;;;;;;;5.93;3.83;;;-2.20;99.30;;;;;;4937000;23;20052;-78
2022/04/03 03:52:17;;;;;;;7.80;4.00;;;-2.10;99.40;;;;;;4928540;29;20958;-79
2022/04/03 03:54:44;;;;;;;9.27;4.67;;;-2.00;99.50;;;;;;4929289;29;20498;-78
2022/04/03 03:57:10;;;;;;;5.43;3.53;;;-2.00;99.40;;;;;;4941560;29;20019;-78
2022/04/03 03:59:36;;;;;;;6.60;4.20;;;-2.00;99.30;;;;;;4919416;29;20424;-78
2022/04/03 04:02:03;;;;;;;8.57;3.67;;;-2.20;99.00;;;;;;4933885;29;20413;-78
2022/04/03 04:04:31;;;;;;;3.93;3.53;;;-2.00;99.60;;;;;;4934341;29;20038;-78
2022/04/03 04:06:57;;;;;;;6.33;3.87;;;-2.00;99.00;;;;;;4931537;29;20035;-78
2022/04/03 04:09:23;;;;;;;5.20;3.70;;;-2.10;98.90;;;;;;4934152;29;20023;-76
2022/04/03 04:11:49;;;;;;;11.13;3.50;;;-2.10;98.80;;;;;;4934616;29;20032;-78
2022/04/03 04:14:15;;;;;;;5.00;2.97;;;-2.00;98.80;;;;;;4933896;29;20400;-78
2022/04/03 04:16:42;;;;;;;4.33;3.20;;;-2.10;98.50;;;;;;4934164;29;20024;-76
2022/04/03 04:19:09;;;;;;;11.43;3.50;;;-2.00;98.90;;;;;;4934029;29;20074;-78
2022/04/03 04:21:35;;;;;;;7.63;3.93;;;-1.90;99.10;;;;;;4927909;29;20028;-78
2022/04/03 04:24:01;;;;;;;6.63;4.23;;;-2.00;98.90;;;;;;4934134;29;20040;-78
2022/04/03 04:26:27;;;;;;;7.77;3.97;;;-1.90;99.30;;;;;;4933891;29;20031;-78
2022/04/03 04:28:53;;;;;;;9.40;4.03;;;-1.90;99.30;;;;;;4934365;29;20481;-78
2022/04/03 04:31:19;;;;;;;5.87;4.20;;;-1.80;99.10;;;;;;4933992;29;20034;-78
2022/04/03 04:33:45;;;;;;;7.17;3.93;;;-1.80;99.00;;;;;;4933520;29;20039;-78
2022/04/03 04:36:11;;;;;;;16.17;4.07;;;-1.70;98.60;;;;;;4932150;29;20020;-79
2022/04/03 04:38:37;;;;;;;11.03;4.27;;;-1.80;98.30;;;;;;4933252;29;20409;-78
2022/04/03 04:41:03;;;;;;;5.80;4.00;;;-1.90;98.20;;;;;;4933605;29;20042;-79
2022/04/03 04:43:29;;;;;;;7.13;3.70;;;-1.90;98.70;;;;;;4934361;29;20107;-78
2022/04/03 04:45:55;;;;;;;7.60;4.93;;;-1.80;98.60;;;;;;4933237;29;20417;-78
2022/04/03 04:48:21;;;;;;;5.27;3.73;;;-2.00;98.50;;;;;;4933265;29;20063;-79
2022/04/03 04:50:47;;;;;;;7.43;4.00;;;-2.00;98.80;;;;;;4944591;23;20555;-79
2022/04/03 04:53:12;;;;;;;7.73;4.10;;;-1.90;98.90;;;;;;4933129;29;20038;-80
2022/04/03 04:55:38;;;;;;;10.60;4.57;;;-1.90;99.10;;;;;;4932934;29;20147;-79
2022/04/03 04:58:04;;;;;;;5.43;4.50;;;-2.00;98.80;;;;;;4933327;29;20027;-79
2022/04/03 05:00:30;;;;;;;8.60;4.27;;;-2.10;98.80;;;;;;4932905;29;20096;-79
2022/04/03 05:02:57;;;;;;;9.90;4.47;;;-2.30;97.90;;;;;;4932997;29;20151;-79
2022/04/03 05:05:23;;;;;;;5.10;3.53;;;-2.30;98.60;;;;;;4931245;29;20027;-79
2022/04/03 05:07:54;;;;;;;6.23;4.43;;;-2.50;99.00;;;;;;4931663;29;20024;-79
2022/04/03 05:10:21;;;;;;;7.03;4.30;;;-2.30;99.20;;;;;;4932526;29;20031;-79
2022/04/03 05:12:47;;;;;;;7.70;4.13;;;-2.40;99.00;;;;;;4933482;29;20050;-79
2022/04/03 05:15:13;;;;;;;9.07;4.20;;;-2.40;99.40;;;;;;4926397;29;20125;-79
2022/04/03 05:17:41;;;;;;;4.87;4.07;;;-2.40;99.00;;;;;;4932970;29;20091;-79
2022/04/03 05:20:07;;;;;;;6.60;4.60;;;-2.50;99.00;;;;;;4932440;29;20473;-79
2022/04/03 05:22:33;;;;;;;6.83;5.10;;;-2.50;99.40;;;;;;4933454;29;20015;-79
2022/04/03 05:25:01;;;;;;;7.97;4.37;;;-2.50;99.70;;;;;;4932399;29;20031;-79
2022/04/03 05:27:27;;;;;;;8.53;4.97;;;-2.60;99.70;;;;;;4932190;29;20128;-79
2022/04/03 05:29:54;;;;;;;9.90;4.53;;;-2.60;99.70;;;;;;4932605;29;20027;-79
2022/04/03 05:32:31;;;;;;;7.17;5.37;;;-2.60;99.90;;;;;;4932360;29;20024;-81
2022/04/03 05:35:00;;;;;;;9.03;5.83;;;-2.50;99.60;;;;;;4932020;29;20036;-81
2022/04/03 05:37:26;;;;;;;8.77;5.50;;;-2.40;99.60;;;;;;4930204;29;20176;-79
2022/04/03 05:39:52;;;;;;;8.30;5.57;;;-2.40;98.70;;;;;;4932801;29;20478;-80
2022/04/03 05:42:22;;;;;;;10.90;5.83;;;-2.50;98.30;;;;;;4932303;29;20119;-81
2022/04/03 05:44:48;;;;;;;12.40;5.77;;;-2.40;98.50;;;;;;4932321;29;20115;-80
2022/04/03 05:47:17;;;;;;;12.87;6.07;;;-2.50;97.80;;;;;;4932920;29;20011;-80
2022/04/03 05:49:44;;;;;;;11.13;6.87;;;-2.50;98.60;;;;;;4929639;23;20490;-78
2022/04/03 05:52:09;;;;;;;8.17;6.80;;;-2.40;98.80;;;;;;4933290;29;20028;-78
2022/04/03 05:54:35;;;;;;;9.90;6.60;;;-2.40;98.60;;;;;;4916183;29;20039;-78
2022/04/03 05:57:01;;;;;;;15.73;6.40;;;-2.30;98.50;;;;;;4933072;29;20019;-78
2022/04/03 05:59:27;;;;;;;10.33;5.97;;;-2.30;98.80;;;;;;4932623;29;20096;-78
2022/04/03 06:01:52;;;;;;;9.63;6.50;;;-2.20;98.80;;;;;;4933191;29;20024;-78
2022/04/03 06:04:18;;;;;;;8.97;5.60;;;-2.20;98.60;;;;;;4932896;29;20028;-78
2022/04/03 06:06:44;;;;;;;7.90;5.97;;;-2.10;98.60;;;;;;4932620;29;20129;-78
2022/04/03 06:09:09;;;;;;;8.57;6.87;;;-2.00;98.70;;;;;;4932207;29;20031;-78
2022/04/03 06:11:35;;;;;;;11.23;5.77;;;-2.00;98.80;;;;;;4933253;29;20034;-78
2022/04/03 06:14:01;;;;;;;10.37;6.27;;;-1.90;98.70;;;;;;4932603;29;20040;-78
2022/04/03 06:16:27;;;;;;;11.33;6.30;;;-1.80;98.40;;;;;;4932826;29;20370;-78
2022/04/03 06:18:54;;;;;;;7.27;6.60;;;-1.80;98.50;;;;;;4925570;29;20488;-78
2022/04/03 06:21:20;;;;;;;12.40;6.00;;;-1.70;97.60;;;;;;4931304;29;20028;-78
2022/04/03 06:23:45;;;;;;;9.07;6.00;;;-1.70;97.80;;;;;;4915163;29;20028;-78
2022/04/03 06:26:12;;;;;;;10.93;6.00;;;-1.70;97.30;;;;;;4932435;29;20087;-78
2022/04/03 06:28:37;;;;;;;9.53;5.60;;;-1.60;97.00;;;;;;4932071;29;20114;-78
2022/04/03 06:31:04;;;;;;;8.03;5.33;;;-1.60;97.10;;;;;;4932447;29;20421;-78
2022/04/03 06:33:30;;;;;;;9.77;5.70;;;-1.60;96.60;;;;;;4932988;29;20453;-78
2022/04/03 06:35:56;;;;;;;8.83;5.80;;;-1.40;96.50;;;;;;4932540;29;20036;-78
2022/04/03 06:38:22;;;;;;;9.17;5.20;;;-1.30;96.80;;;;;;4932778;29;20042;-78
2022/04/03 06:40:49;;;;;;;13.20;6.60;;;-1.20;97.60;;;;;;4932901;29;20023;-78
2022/04/03 06:43:33;;;;;;;16.37;7.07;;;-1.10;97.60;;;;;;4932008;29;20068;-78
2022/04/03 06:45:59;;;;;;;11.77;6.90;;;-1.00;97.70;;;;;;4930801;29;20020;-77
2022/04/03 06:48:28;;;;;;;9.93;6.87;;;-0.90;97.00;;;;;;4932706;29;20031;-77
2022/04/03 06:50:55;;;;;;;7.33;6.43;;;-0.80;96.50;;;;;;4927843;23;20481;-80
2022/04/03 06:53:20;;;;;;;8.57;6.67;;;-0.70;96.60;;;;;;4933046;29;20027;-80
2022/04/03 06:55:46;;;;;;;13.67;6.90;;;-0.60;96.20;;;;;;4932961;29;20024;-79
2022/04/03 06:58:12;;;;;;;11.23;7.37;;;-0.50;96.70;;;;;;4916282;29;20047;-79
2022/04/03 07:00:38;;;;;;;11.60;7.60;;;-0.30;97.00;;;;;;4925952;29;20034;-79
2022/04/03 07:03:04;;;;;;;11.63;6.57;;;-0.20;96.40;;;;;;4924468;29;20035;-79
2022/04/03 07:05:30;;;;;;;9.93;7.17;;;0.10;96.30;;;;;;4922749;29;20134;-80
2022/04/03 07:07:55;;;;;;;9.87;6.83;;;0.30;95.70;;;;;;4925909;29;20465;-80
2022/04/03 07:10:21;;;;;;;13.87;7.67;;;0.60;95.60;;;;;;4923931;29;20095;-79
2022/04/03 07:12:47;;;;;;;14.70;8.00;;;0.70;95.10;;;;;;4927870;29;20092;-79
2022/04/03 07:15:13;;;;;;;11.67;7.27;;;0.90;94.20;;;;;;4921025;29;20032;-79
2022/04/03 07:17:43;;;;;;;8.67;6.33;;;1.00;94.50;;;;;;4923398;29;20024;-79
2022/04/03 07:20:10;;;;;;;11.73;7.63;;;1.40;92.70;;;;;;4910016;29;20024;-80
2022/04/03 07:22:35;;;;;;;10.93;6.20;;;1.50;92.90;;;;;;4924512;29;20032;-80
2022/04/03 07:25:01;;;;;;;10.50;6.07;;;1.70;91.90;;;;;;4927596;29;20099;-81
2022/04/03 07:27:27;;;;;;;11.40;6.13;;;1.80;91.00;;;;;;4928390;29;20028;-80
2022/04/03 07:29:53;;;;;;;9.90;5.87;;;2.00;90.70;;;;;;4924907;29;20428;-80
2022/04/03 07:32:19;;;;;;;14.40;5.80;;;2.40;88.60;;;;;;4927536;29;20020;-80
2022/04/03 07:34:44;;;;;;;7.17;4.33;;;2.60;87.40;;;;;;4928535;29;20024;-80
2022/04/03 07:37:10;;;;;;;8.20;4.93;;;2.60;86.40;;;;;;4927100;29;20104;-80
2022/04/03 07:39:36;;;;;;;8.03;4.60;;;2.70;86.90;;;;;;4927050;29;20023;-81
2022/04/03 07:42:03;;;;;;;6.27;4.03;;;2.70;86.60;;;;;;4926313;29;20024;-81
2022/04/03 07:44:29;;;;;;;4.23;3.27;;;2.80;84.50;;;;;;4923171;29;20020;-81
2022/04/03 07:46:54;;;;;;;8.87;3.97;;;2.90;83.40;;;;;;4926065;29;20091;-81
2022/04/03 07:49:20;;;;;;;9.03;4.20;;;3.30;84.40;;;;;;4946886;23;20000;-79
2022/04/03 07:51:46;;;;;;;5.03;3.60;;;3.60;83.20;;;;;;4927660;29;20488;-80
2022/04/03 07:54:12;;;;;;;5.50;4.47;;;3.80;80.60;;;;;;4942353;29;20507;-80
2022/04/03 07:56:37;;;;;;;6.57;4.40;;;3.90;80.10;;;;;;4946502;29;20038;-80
2022/04/03 07:59:05;;;;;;;4.90;3.80;;;4.00;80.80;;;;;;4935091;29;20016;-80
2022/04/03 08:01:33;;;;;;;6.27;4.07;;;4.00;80.30;;;;;;4917430;29;20381;-80
2022/04/03 08:03:59;;;;;;;6.07;4.07;;;4.10;80.60;;;;;;4917450;29;20028;-80
2022/04/03 08:06:24;;;;;;;8.40;4.40;;;4.10;81.50;;;;;;4923802;29;20032;-80
2022/04/03 08:08:50;;;;;;;8.20;4.43;;;4.30;79.70;;;;;;4916828;29;20039;-81
2022/04/03 08:11:16;;;;;;;6.67;4.60;;;4.40;80.50;;;;;;4916669;29;20083;-81
2022/04/03 08:13:42;;;;;;;7.60;4.20;;;4.40;80.40;;;;;;4900246;29;20036;-81
2022/04/03 08:16:08;;;;;;;7.80;5.27;;;4.40;80.30;;;;;;4916999;29;20103;-82
2022/04/03 08:18:34;;;;;;;6.00;4.20;;;4.60;80.70;;;;;;4916865;29;20054;-81
2022/04/03 08:21:00;;;;;;;6.97;4.70;;;4.70;80.30;;;;;;4916621;29;20031;-82
2022/04/03 08:23:25;;;;;;;5.67;3.37;;;4.80;80.50;;;;;;4917063;29;20489;-82
2022/04/03 08:25:51;;;;;;;5.47;3.67;;;4.80;80.40;;;;;;4916574;29;20036;-84
2022/04/03 08:28:17;;;;;;;5.63;4.17;;;4.80;82.20;;;;;;4916594;29;20039;-83
2022/04/03 08:30:43;;;;;;;8.20;3.80;;;5.00;79.10;;;;;;4916304;29;20044;-82
2022/04/03 08:33:09;;;;;;;6.83;3.80;;;5.10;81.90;;;;;;4916807;29;20048;-80
2022/04/03 08:35:40;;;;;;;9.80;4.23;;;5.30;79.60;;;;;;4918649;29;20036;-82
2022/04/03 08:38:07;;;;;;;9.30;4.53;;;5.50;77.90;;;;;;4916209;29;20429;-82
2022/04/03 08:40:34;;;;;;;8.43;3.67;;;5.70;78.80;;;;;;4922972;29;20298;-81
2022/04/03 08:43:01;;;;;;;4.00;3.60;;;5.80;78.60;;;;;;4926198;29;20020;-83
2022/04/03 08:45:27;;;;;;;6.47;3.50;;;6.00;78.50;;;;;;4925022;29;20031;-81
2022/04/03 08:47:56;;;;;;;5.33;3.03;;;6.40;77.90;;;;;;4922724;29;20071;-82
2022/04/03 08:50:27;;;;;;;6.73;3.63;;;6.80;75.60;;;;;;4916377;29;20091;-82
2022/04/03 08:52:54;;;;;;;5.15;2.88;;;7.20;73.20;;;;;;4916177;29;20410;-81
2022/04/03 08:55:21;;;;;;;5.03;2.30;;;7.50;72.50;;;;;;4923404;29;20091;-81
2022/04/03 08:57:47;;;;;;;4.68;1.85;;;7.90;70.00;;;;;;4916352;29;20024;-82
2022/04/03 09:00:14;;;;;;;2.72;1.80;;;8.30;70.80;;;;;;4899334;29;20038;-82
2022/04/03 09:02:41;;;;;;;5.82;1.50;;;8.60;66.10;;;;;;4916274;29;20028;-82
2022/04/03 09:05:11;;;;;;;2.85;1.33;;;8.90;67.40;;;;;;4916167;29;20502;-79
2022/04/03 09:07:38;;;;;;;1.05;0.80;;;9.30;65.70;;;;;;4918590;29;20028;-82
2022/04/03 09:10:17;;;;;;;2.47;1.10;;;9.50;59.30;;;;;;4916113;29;20103;-81
2022/04/03 09:12:47;;;;;;;2.17;0.77;;;9.50;58.60;;;;;;4916064;29;20074;-80
2022/04/03 09:15:18;;;;;;;3.13;0.98;;;9.80;61.80;;;;;;4898589;29;20059;-82
2022/04/03 09:17:46;;;;;;;2.08;0.77;;;10.40;59.40;;;;;;4916529;29;20027;-82
2022/04/03 09:20:18;;;;;;;4.55;1.30;;;10.70;55.30;;;;;;4908261;29;20031;-81
2022/04/03 09:22:45;;;;;;;2.25;0.75;;;11.30;54.30;;;;;;4916171;29;20024;-81
2022/04/03 09:25:16;;;;;;;1.90;1.20;;;11.90;50.60;;;;;;4916103;29;20028;-80
2022/04/03 09:27:49;;;;;;;2.35;1.17;;;12.30;48.70;;;;;;4915749;29;20028;-81
2022/04/03 09:30:17;;;;;;;1.88;1.30;;;13.00;50.00;;;;;;4915848;29;20272;-82
2022/04/03 09:32:57;;;;;;;2.35;0.93;;;13.40;45.90;;;;;;4898818;29;20079;-80
2022/04/03 09:35:29;;;;;;;2.95;1.00;;;13.80;47.00;;;;;;4916123;29;20051;-81
2022/04/03 09:38:14;;;;;;;0.77;0.77;;;14.40;42.80;;;;;;4916593;29;20508;-81
2022/04/03 09:40:51;;;;;;;1.45;0.80;;;14.30;41.10;;;;;;4915710;29;20492;-81
2022/04/03 09:43:28;;;;;;;2.50;0.90;;;15.40;44.20;;;;;;4915071;29;20024;-81
2022/04/03 09:45:56;;;;;;;3.00;0.60;;;16.90;36.70;;;;;;4915421;29;20031;-81
2022/04/03 09:48:31;;;;;;;0.47;0.40;;;17.50;32.30;;;;;;4914457;29;20034;-82
2022/04/03 09:51:07;;;;;;;1.75;0.60;;;17.30;32.30;;;;;;4930403;23;20504;-77
2022/04/03 09:53:41;;;;;;;2.60;0.55;;;17.60;31.90;;;;;;4922046;29;20036;-78
2022/04/03 09:56:12;;;;;;;1.00;0.50;;;18.60;33.40;;;;;;4898937;29;20028;-78
2022/04/03 09:58:58;;;;;;;3.42;0.60;;;19.80;31.60;;;;;;4898727;29;20038;-77
2022/04/03 10:01:30;;;;;;;1.80;0.60;;;19.10;29.30;;;;;;4898042;29;20032;-78
2022/04/03 10:03:58;;;;;;;3.03;0.60;;;19.50;28.10;;;;;;4915042;29;20028;-76
2022/04/03 10:06:24;;;;;;;1.70;0.80;;;18.30;28.80;;;;;;4916835;29;20035;-76
2022/04/03 10:08:50;;;;;;;1.35;0.73;;;18.00;32.60;;;;;;4915674;29;20048;-76
2022/04/03 10:11:16;;;;;;;2.97;0.68;;;19.00;29.00;;;;;;4915386;29;20025;-77
2022/04/03 10:13:43;;;;;;;0.43;0.43;;;18.80;30.00;;;;;;4914883;29;20064;-76
2022/04/03 10:16:13;;;;;;;1.65;0.57;;;19.10;29.00;;;;;;4914962;29;20024;-77
2022/04/03 10:18:43;;;;;;;0.50;0.32;;;19.20;31.80;;;;;;4914624;29;20131;-76
2022/04/03 10:21:19;;;;;;;0.55;0.50;;;20.80;29.10;;;;;;4914949;29;20020;-78
2022/04/03 10:23:45;;;;;;;4.13;0.77;;;21.30;26.80;;;;;;4898408;29;20032;-76
2022/04/03 10:26:15;;;;;;;0.85;0.60;;;22.00;28.70;;;;;;4898538;29;20032;-77
2022/04/03 10:28:47;;;;;;;2.13;0.73;;;22.00;26.60;;;;;;4915503;29;20032;-76
2022/04/03 10:31:15;;;;;;;1.25;0.60;;;21.90;25.70;;;;;;4898369;29;20020;-76
2022/04/03 10:33:48;;;;;;;2.50;0.60;;;21.70;26.00;;;;;;4915286;29;20370;-77
2022/04/03 10:36:15;;;;;;;2.10;0.40;;;21.60;24.20;;;;;;4917530;29;20485;-76
2022/04/03 10:38:56;;;;;;;1.27;0.50;;;22.70;26.20;;;;;;4915015;29;20027;-76
2022/04/03 10:41:27;;;;;;;1.52;0.60;;;22.40;24.50;;;;;;4915107;29;20505;-77
2022/04/03 10:44:18;;;;;;;2.80;0.70;;;22.70;25.00;;;;;;4915462;29;20032;-77
2022/04/03 10:47:04;;;;;;;1.90;0.65;;;23.90;26.40;;;;;;4915171;29;20024;-78
2022/04/03 10:49:42;;;;;;;1.38;0.75;;;23.70;22.70;;;;;;4942408;23;20068;-82
2022/04/03 10:52:24;;;;;;;2.67;0.90;;;24.20;24.90;;;;;;4914018;29;20028;-85
2022/04/03 10:54:54;;;;;;;2.30;0.52;;;22.50;23.00;;;;;;4901233;29;20032;-82
2022/04/03 10:57:32;;;;;;;1.75;0.73;;;20.40;26.50;;;;;;4901807;29;20099;-79
2022/04/03 11:00:12;;;;;;;4.07;0.65;;;17.60;27.80;;;;;;4895152;29;20103;-79
2022/04/03 11:02:43;;;;;;;3.55;0.95;;;16.70;29.60;;;;;;4911678;29;20013;-79
2022/04/03 11:05:27;;;;;;;2.92;0.70;;;14.60;32.60;;;;;;4918293;29;20028;-79
2022/04/03 11:08:13;;;;;;;1.77;0.70;;;15.80;35.80;;;;;;4917602;29;20478;-79
2022/04/03 11:10:56;;;;;;;1.65;0.70;;;17.50;30.90;;;;;;4863253;29;20028;-80
2022/04/03 11:13:34;;;;;;;1.92;0.75;;;19.40;30.00;;;;;;4918165;29;20031;-81
2022/04/03 11:16:10;;;;;;;1.63;0.82;;;21.20;26.80;;;;;;4918084;29;20059;-80
2022/04/03 11:18:47;;;;;;;2.97;0.60;;;20.80;25.70;;;;;;4917743;29;20024;-85
2022/04/03 11:21:28;;;;;;;1.52;0.43;;;19.40;27.00;;;;;;4917670;29;20052;-80
2022/04/03 11:24:10;;;;;;;1.88;0.60;;;17.40;29.20;;;;;;4900934;29;20095;-80
2022/04/03 11:26:38;;;;;;;1.25;0.50;;;15.40;33.00;;;;;;4917903;29;20028;-81
2022/04/03 11:29:05;;;;;;;1.05;0.45;;;15.60;32.00;;;;;;4917660;29;20024;-80
2022/04/03 11:31:32;;;;;;;2.00;0.70;;;16.80;28.20;;;;;;4900605;29;20429;-80
2022/04/03 11:33:59;;;;;;;1.48;0.50;;;19.20;27.90;;;;;;4917277;29;20040;-81
2022/04/03 11:36:32;;;;;;;0.73;0.43;;;20.20;24.80;;;;;;4917076;29;20020;-83
2022/04/03 11:39:00;;;;;;;2.20;0.50;;;19.70;28.80;;;;;;4900572;29;20027;-81
2022/04/03 11:41:31;;;;;;;1.48;0.60;;;18.70;27.50;;;;;;4917525;29;20036;-83
2022/04/03 11:44:04;;;;;;;1.48;0.52;;;17.60;29.50;;;;;;4917731;29;20030;-81
2022/04/03 11:46:31;;;;;;;1.33;0.50;;;16.60;29.40;;;;;;4917524;29;20104;-84
2022/04/03 11:48:57;;;;;;;1.98;0.70;;;15.30;30.70;;;;;;4917309;29;20029;-82
2022/04/03 11:51:24;;;;;;;2.72;0.60;;;14.30;31.30;;;;;;4916908;29;20028;-81
2022/04/03 11:54:00;;;;;;;0.73;0.45;;;14.70;32.60;;;;;;4916242;29;20027;-81
2022/04/03 11:56:29;;;;;;;0.40;0.30;;;17.00;30.60;;;;;;4916859;29;20424;-81
2022/04/03 11:58:57;;;;;;;2.67;0.40;;;19.80;29.50;;;;;;4917363;29;20012;-81
2022/04/03 12:01:26;;;;;;;1.48;0.50;;;22.10;25.10;;;;;;4917132;29;20067;-80
2022/04/03 12:04:08;;;;;;;1.40;0.35;;;21.70;23.40;;;;;;4917121;29;20024;-81
2022/04/03 12:06:42;;;;;;;3.28;0.40;;;20.10;22.80;;;;;;4910349;29;20016;-84
2022/04/03 12:09:13;;;;;;;1.45;0.40;;;21.50;23.70;;;;;;4916141;29;20016;-80
2022/04/03 12:11:41;;;;;;;0.75;0.50;;;22.40;23.20;;;;;;4915316;29;20020;-80
2022/04/03 12:14:08;;;;;;;0.75;0.35;;;23.00;23.80;;;;;;4916525;29;20556;-80
2022/04/03 12:16:38;;;;;;;0.52;0.52;;;21.10;24.10;;;;;;4915915;29;20024;-81
2022/04/03 12:19:08;;;;;;;1.30;0.30;;;19.90;25.30;;;;;;4910447;29;20091;-84
2022/04/03 12:21:40;;;;;;;1.95;0.60;;;18.20;26.60;;;;;;4954150;23;20043;-78
2022/04/03 12:24:16;;;;;;;1.48;0.30;;;17.30;25.60;;;;;;4934746;29;20023;-78
2022/04/03 12:26:48;;;;;;;0.40;0.30;;;17.00;29.80;;;;;;4934300;29;20046;-78
2022/04/03 12:29:16;;;;;;;1.05;0.50;;;17.50;27.10;;;;;;4934653;29;20576;-78
2022/04/03 12:31:42;;;;;;;1.58;0.50;;;20.10;26.70;;;;;;4934446;29;20012;-79
2022/04/03 12:34:13;;;;;;;0.82;0.50;;;22.00;25.00;;;;;;4933986;29;20032;-77
2022/04/03 12:36:39;;;;;;;1.52;0.55;;;21.20;23.40;;;;;;4934430;29;20039;-76
2022/04/03 12:39:05;;;;;;;3.60;0.60;;;20.20;24.80;;;;;;4935075;29;20023;-77
2022/04/03 12:41:31;;;;;;;2.90;1.13;;;18.50;26.90;;;;;;4934779;29;20024;-77
2022/04/03 12:43:58;;;;;;;1.58;0.52;;;16.80;26.80;;;;;;4934886;29;20055;-77
2022/04/03 12:46:34;;;;;;;1.48;0.52;;;15.90;29.80;;;;;;4934869;29;20519;-77
2022/04/03 12:49:00;;;;;;;2.00;0.70;;;15.10;32.30;;;;;;4933177;29;20028;-77
2022/04/03 12:51:26;;;;;;;0.93;0.60;;;14.80;31.00;;;;;;4932842;29;20031;-77